Time;durP1;ratioP1;P1;durP2;ratioP2;P2;SDS_P1;SDS_P2;PMS_P1;PMS_P2;Temp;Humidity;BMP_temperature;BMP_pressure;BME280_temperature;BME280_humidity;BME280_pressure;Samples;Min_cycle;Max_cycle;Signal;HPM_P1;HPM_P2
2023/03/07 00:00:40;;;;;;;13.83;9.10;;;;;;;4.93;51.44;95051.28;5028156;28;20414;-71
2023/03/07 00:03:05;;;;;;;12.27;7.40;;;;;;;4.95;51.61;95049.44;5027906;28;20434;-69
2023/03/07 00:05:31;;;;;;;12.40;8.73;;;;;;;4.91;51.81;95053.94;5027496;28;21096;-70
2023/03/07 00:07:57;;;;;;;13.80;9.57;;;;;;;4.87;51.61;95048.03;5027608;28;20748;-71
2023/03/07 00:10:23;;;;;;;12.60;8.90;;;;;;;4.88;51.61;95048.88;5027823;28;20274;-70
2023/03/07 00:12:49;;;;;;;14.20;9.43;;;;;;;4.91;51.97;95050.47;5026930;28;20514;-70
2023/03/07 00:15:14;;;;;;;12.90;9.60;;;;;;;4.91;52.26;95047.88;5027627;28;20168;-70
2023/03/07 00:17:40;;;;;;;11.30;9.87;;;;;;;4.94;51.83;95042.53;5027134;28;20167;-70
2023/03/07 00:20:07;;;;;;;12.80;9.03;;;;;;;4.93;51.78;95036.50;5027063;28;20171;-69
2023/03/07 00:22:34;;;;;;;12.80;9.17;;;;;;;4.88;52.37;95033.28;5026817;28;20199;-70
2023/03/07 00:24:59;;;;;;;12.70;8.27;;;;;;;4.81;52.25;95022.28;5027557;28;20486;-71
2023/03/07 00:27:25;;;;;;;16.20;8.47;;;;;;;4.82;52.67;95031.78;5027425;28;20438;-71
2023/03/07 00:29:50;;;;;;;13.87;10.17;;;;;;;4.85;51.60;95034.25;5027579;28;20660;-72
2023/03/07 00:32:16;;;;;;;12.20;8.93;;;;;;;4.79;51.90;95031.06;5026776;28;20790;-71
2023/03/07 00:34:41;;;;;;;16.40;9.87;;;;;;;4.77;52.53;95027.69;5027447;28;20254;-71
2023/03/07 00:37:07;;;;;;;15.30;8.90;;;;;;;4.76;52.40;95023.41;5027346;28;20172;-71
2023/03/07 00:39:32;;;;;;;14.17;8.80;;;;;;;4.82;52.17;95028.34;5027589;28;20176;-71
2023/03/07 00:41:58;;;;;;;13.57;8.63;;;;;;;4.71;52.74;95021.00;5027322;28;20185;-71
2023/03/07 00:44:25;;;;;;;12.30;8.87;;;;;;;4.75;52.11;95019.09;5027340;28;20194;-73
2023/03/07 00:46:51;;;;;;;13.10;9.50;;;;;;;4.80;52.36;95017.19;5026791;28;20191;-71
2023/03/07 00:49:17;;;;;;;14.27;9.80;;;;;;;4.75;52.00;95017.38;5027505;28;20476;-71
2023/03/07 00:51:42;;;;;;;16.10;9.57;;;;;;;4.70;52.84;95015.88;5026381;28;20167;-71
2023/03/07 00:54:08;;;;;;;20.40;9.93;;;;;;;4.71;52.90;95010.63;5027596;28;20196;-71
2023/03/07 00:56:33;;;;;;;14.60;10.60;;;;;;;4.76;52.68;95010.41;5027029;28;20708;-72
2023/03/07 00:58:58;;;;;;;16.40;9.20;;;;;;;4.72;53.24;95003.66;5027431;28;20593;-71
2023/03/07 01:01:24;;;;;;;11.27;8.40;;;;;;;4.69;52.89;95006.41;5027233;28;20175;-72
2023/03/07 01:03:54;;;;;;;15.03;8.43;;;;;;;4.72;53.58;95004.50;5027113;28;20283;-71
2023/03/07 01:06:23;;;;;;;15.03;8.80;;;;;;;4.69;53.18;94999.44;5026996;28;20720;-72
2023/03/07 01:08:48;;;;;;;32.63;10.70;;;;;;;4.67;53.70;94998.66;5027384;28;20433;-71
2023/03/07 01:11:14;;;;;;;12.83;9.10;;;;;;;4.67;53.55;94988.25;5027502;28;20456;-72
2023/03/07 01:13:40;;;;;;;21.60;9.77;;;;;;;4.68;53.61;94987.38;5027045;28;20199;-71
2023/03/07 01:16:11;;;;;;;16.80;10.57;;;;;;;4.64;53.96;94984.03;5027237;28;20680;-72
2023/03/07 01:18:37;;;;;;;17.67;9.53;;;;;;;4.65;53.65;94985.75;5026887;28;20505;-70
2023/03/07 01:21:17;;;;;;;13.20;10.27;;;;;;;4.62;53.75;94985.88;5027087;28;20420;-71
2023/03/07 01:23:43;;;;;;;14.53;9.50;;;;;;;4.66;53.56;94989.19;5027142;28;20229;-71
2023/03/07 01:26:20;;;;;;;13.10;9.30;;;;;;;4.72;52.99;94986.31;5027662;28;20998;-71
2023/03/07 01:28:46;;;;;;;16.67;10.30;;;;;;;4.64;53.75;94985.81;5028413;28;20566;-70
2023/03/07 01:31:12;;;;;;;14.93;8.87;;;;;;;4.59;53.79;94990.38;5028343;28;20426;-68
2023/03/07 01:33:38;;;;;;;14.53;9.30;;;;;;;4.64;53.43;94984.03;5027757;28;20249;-68
2023/03/07 01:36:04;;;;;;;14.73;9.77;;;;;;;4.59;53.47;94991.19;5027300;28;20168;-69
2023/03/07 01:38:32;;;;;;;16.40;10.23;;;;;;;4.61;53.46;94983.34;5027704;28;20179;-71
2023/03/07 01:41:00;;;;;;;14.77;9.80;;;;;;;4.56;53.31;94985.28;5027808;28;20449;-69
2023/03/07 01:43:32;;;;;;;15.73;10.70;;;;;;;4.52;53.55;94978.56;5029795;28;20421;-68
2023/03/07 01:46:03;;;;;;;13.10;10.30;;;;;;;4.59;53.13;94980.81;5030371;28;20457;-68
2023/03/07 01:48:28;;;;;;;14.63;9.33;;;;;;;4.54;53.30;94976.75;5030988;28;20452;-68
2023/03/07 01:50:54;;;;;;;19.10;10.77;;;;;;;4.49;53.08;94970.88;5030832;28;20402;-70
2023/03/07 01:53:20;;;;;;;14.67;8.90;;;;;;;4.52;53.39;94978.56;5030272;28;20195;-71
2023/03/07 01:55:46;;;;;;;11.63;8.90;;;;;;;4.61;52.38;94972.97;5030091;28;20167;-69
2023/03/07 01:58:13;;;;;;;12.70;9.00;;;;;;;4.61;52.21;94971.19;5030201;28;20429;-68
2023/03/07 02:00:40;;;;;;;16.30;9.90;;;;;;;4.54;52.55;94971.53;5030191;28;20230;-72
2023/03/07 02:03:31;;;;;;;12.53;9.47;;;;;;;4.50;52.45;94967.38;5029930;28;20462;-70
2023/03/07 02:06:00;;;;;;;16.57;10.17;;;;;;;4.58;52.44;94960.09;5030010;28;20461;-70
2023/03/07 02:08:29;;;;;;;19.53;9.73;;;;;;;4.53;52.34;94959.44;5030322;28;20509;-70
2023/03/07 02:10:54;;;;;;;11.33;8.30;;;;;;;4.39;52.44;94965.22;5030109;28;20419;-70
2023/03/07 02:13:20;;;;;;;11.57;8.10;;;;;;;4.39;52.76;94960.03;5029871;28;20430;-70
2023/03/07 02:15:46;;;;;;;14.00;9.93;;;;;;;4.25;53.09;94955.41;5029799;28;20640;-71
2023/03/07 02:18:16;;;;;;;13.53;9.87;;;;;;;4.29;52.58;94950.97;5029674;28;20271;-70
2023/03/07 02:21:16;;;;;;;14.20;9.87;;;;;;;4.26;52.98;94953.69;5030636;28;20406;-70
2023/03/07 02:23:53;;;;;;;13.90;9.73;;;;;;;4.38;52.46;94956.59;5029527;28;20421;-71
2023/03/07 02:26:28;;;;;;;14.03;9.63;;;;;;;4.32;52.52;94946.47;5029009;28;20471;-71
2023/03/07 02:28:54;;;;;;;12.50;9.10;;;;;;;4.36;52.61;94950.63;5029406;28;20406;-70
2023/03/07 02:31:20;;;;;;;15.50;10.17;;;;;;;4.30;53.13;94940.50;5029305;28;20509;-70
2023/03/07 02:33:45;;;;;;;11.50;8.60;;;;;;;4.26;52.71;94941.56;5029181;28;20426;-70
2023/03/07 02:36:18;;;;;;;9.93;7.33;;;;;;;4.32;52.46;94935.22;5029199;28;20422;-70
2023/03/07 02:38:47;;;;;;;13.90;9.37;;;;;;;4.33;52.83;94935.19;5029333;28;20167;-70
2023/03/07 02:41:15;;;;;;;17.60;10.03;;;;;;;4.31;52.27;94929.22;5029448;28;20413;-70
2023/03/07 02:43:41;;;;;;;13.80;9.00;;;;;;;4.37;52.40;94928.94;5028897;28;20427;-71
2023/03/07 02:46:06;;;;;;;16.43;10.03;;;;;;;4.29;52.85;94925.81;5028483;28;20458;-70
2023/03/07 02:48:32;;;;;;;12.67;8.33;;;;;;;4.31;52.93;94921.41;5029262;28;20252;-71
2023/03/07 02:50:57;;;;;;;14.43;9.83;;;;;;;4.27;52.51;94922.44;5028166;28;20172;-70
2023/03/07 02:53:23;;;;;;;13.23;8.47;;;;;;;4.32;52.84;94928.28;5028269;28;20192;-71
2023/03/07 02:55:48;;;;;;;16.37;10.20;;;;;;;4.29;52.86;94927.59;5028048;28;20176;-72
2023/03/07 02:58:13;;;;;;;15.90;8.10;;;;;;;4.26;52.90;94928.56;5028490;28;20713;-70
2023/03/07 03:00:39;;;;;;;11.90;9.40;;;;;;;4.27;53.07;94932.84;5028538;28;20175;-71
2023/03/07 03:03:04;;;;;;;14.37;9.50;;;;;;;4.19;53.49;94915.00;5028616;28;20202;-71
2023/03/07 03:05:30;;;;;;;14.70;9.10;;;;;;;4.22;53.73;94924.41;5028408;28;20257;-70
2023/03/07 03:07:56;;;;;;;13.10;8.30;;;;;;;4.16;54.16;94929.88;5028229;28;20197;-69
2023/03/07 03:10:21;;;;;;;12.83;9.03;;;;;;;4.19;54.04;94919.34;5029807;28;20176;-70
2023/03/07 03:12:46;;;;;;;13.50;9.37;;;;;;;4.20;54.22;94921.03;5031486;28;20198;-70
2023/03/07 03:15:12;;;;;;;16.33;10.17;;;;;;;4.19;54.32;94922.78;5033583;28;20164;-70
2023/03/07 03:17:38;;;;;;;12.77;9.27;;;;;;;4.26;54.06;94925.97;5034029;28;20176;-71
2023/03/07 03:20:10;;;;;;;20.80;10.83;;;;;;;4.15;54.14;94925.56;5039378;28;20202;-71
2023/03/07 03:22:37;;;;;;;14.27;10.27;;;;;;;4.08;54.63;94927.56;5042906;28;20221;-70
2023/03/07 03:25:03;;;;;;;12.60;9.53;;;;;;;4.22;54.20;94932.19;5038079;28;20474;-70
2023/03/07 03:27:31;;;;;;;14.87;9.10;;;;;;;4.09;55.02;94931.03;5028441;28;20505;-72
2023/03/07 03:29:57;;;;;;;12.93;8.70;;;;;;;4.19;54.75;94930.56;5028143;28;20476;-69
2023/03/07 03:32:22;;;;;;;10.93;8.57;;;;;;;4.11;55.09;94929.19;5028045;28;20817;-71
2023/03/07 03:34:48;;;;;;;14.40;8.90;;;;;;;4.09;55.07;94929.28;5027914;28;20198;-71
2023/03/07 03:37:13;;;;;;;15.03;9.80;;;;;;;4.06;55.03;94924.19;5027827;28;20233;-71
2023/03/07 03:39:39;;;;;;;16.30;9.90;;;;;;;4.08;55.05;94930.19;5032766;28;20309;-70
2023/03/07 03:42:05;;;;;;;16.10;9.33;;;;;;;4.20;54.87;94926.22;5031262;28;20175;-70
2023/03/07 03:44:30;;;;;;;14.30;9.30;;;;;;;4.15;54.84;94926.41;5028973;28;20460;-70
2023/03/07 03:46:56;;;;;;;13.20;9.50;;;;;;;4.16;54.90;94917.72;5028154;28;20194;-69
2023/03/07 03:49:21;;;;;;;20.67;10.10;;;;;;;4.05;55.23;94922.53;5027799;28;20187;-69
2023/03/07 03:51:46;;;;;;;16.63;9.80;;;;;;;4.00;55.05;94922.72;5027947;28;20605;-70
2023/03/07 03:54:12;;;;;;;13.97;8.80;;;;;;;3.97;54.88;94917.66;5027753;28;20672;-70
2023/03/07 03:56:37;;;;;;;14.40;9.03;;;;;;;3.88;55.45;94918.03;5027411;28;20182;-70
2023/03/07 03:59:03;;;;;;;21.63;8.80;;;;;;;3.88;55.55;94918.03;5027627;28;20179;-69
2023/03/07 04:01:28;;;;;;;16.43;9.40;;;;;;;3.92;55.24;94919.63;5028315;28;20164;-70
2023/03/07 04:03:55;;;;;;;17.70;10.00;;;;;;;3.94;55.41;94922.97;5028046;28;20297;-70
2023/03/07 04:06:23;;;;;;;10.27;8.23;;;;;;;3.85;55.80;94919.91;5027069;28;20572;-73
2023/03/07 04:08:50;;;;;;;13.60;9.53;;;;;;;3.79;55.60;94923.63;5027749;28;20411;-71
2023/03/07 04:11:16;;;;;;;13.87;9.10;;;;;;;3.86;55.28;94926.81;5027559;28;20887;-68
2023/03/07 04:13:42;;;;;;;17.10;9.20;;;;;;;3.79;55.55;94923.63;5027113;28;20437;-69
2023/03/07 04:16:07;;;;;;;13.03;9.27;;;;;;;3.74;55.56;94922.97;5027194;28;20186;-70
2023/03/07 04:18:34;;;;;;;13.63;10.20;;;;;;;3.76;55.43;94928.94;5027225;28;20226;-69
2023/03/07 04:21:00;;;;;;;13.70;8.90;;;;;;;3.76;54.90;94926.34;5027399;28;20322;-70
2023/03/07 04:23:26;;;;;;;16.57;10.40;;;;;;;3.71;55.08;94923.06;5027289;28;20521;-70
2023/03/07 04:25:55;;;;;;;16.33;9.20;;;;;;;3.75;55.22;94922.88;5027029;28;20199;-69
2023/03/07 04:28:26;;;;;;;13.10;8.57;;;;;;;3.71;55.28;94930.84;5027042;28;20402;-69
2023/03/07 04:30:52;;;;;;;17.17;10.33;;;;;;;3.75;55.06;94929.81;5027367;28;20413;-69
2023/03/07 04:33:18;;;;;;;11.03;8.93;;;;;;;3.65;55.14;94926.75;5027157;28;20426;-69
2023/03/07 04:35:44;;;;;;;14.00;9.23;;;;;;;3.62;55.31;94928.66;5025738;28;20285;-70
2023/03/07 04:38:11;;;;;;;11.37;8.73;;;;;;;3.56;55.41;94924.53;5027021;28;20621;-68
2023/03/07 04:40:36;;;;;;;13.90;9.43;;;;;;;3.57;55.42;94921.91;5026862;28;20201;-68
2023/03/07 04:43:02;;;;;;;12.10;8.77;;;;;;;3.59;55.46;94914.91;5026921;28;20418;-69
2023/03/07 04:45:29;;;;;;;16.50;8.33;;;;;;;3.63;55.03;94922.53;5026951;28;20245;-70
2023/03/07 04:47:55;;;;;;;14.40;8.90;;;;;;;3.73;55.03;94913.47;5026787;28;20175;-69
2023/03/07 04:50:20;;;;;;;16.57;9.53;;;;;;;3.67;54.88;94919.78;5026861;28;20413;-68
2023/03/07 04:52:45;;;;;;;10.27;8.30;;;;;;;3.70;55.01;94913.59;5026997;28;20277;-68
2023/03/07 04:55:11;;;;;;;13.07;9.07;;;;;;;3.67;54.70;94917.19;5027171;28;20613;-68
2023/03/07 04:57:37;;;;;;;14.57;10.57;;;;;;;3.75;54.68;94922.03;5026834;28;20240;-67
2023/03/07 05:00:08;;;;;;;22.60;12.10;;;;;;;3.74;54.41;94912.59;5026916;28;20222;-67
2023/03/07 05:02:34;;;;;;;17.27;10.40;;;;;;;3.59;54.99;94912.31;5026525;28;20213;-69
2023/03/07 05:05:00;;;;;;;14.00;9.97;;;;;;;3.64;55.08;94913.84;5027022;28;20460;-70
2023/03/07 05:07:25;;;;;;;22.73;9.30;;;;;;;3.73;55.05;94913.47;5026467;28;20786;-68
2023/03/07 05:09:51;;;;;;;14.60;10.47;;;;;;;3.68;54.87;94903.28;5026864;28;20262;-69
2023/03/07 05:12:17;;;;;;;17.10;10.73;;;;;;;3.67;54.91;94905.97;5026781;28;20340;-69
2023/03/07 05:14:42;;;;;;;19.33;10.57;;;;;;;3.74;55.10;94907.41;5026825;28;20168;-70
2023/03/07 05:17:09;;;;;;;16.97;10.97;;;;;;;3.79;54.43;94901.09;5027335;28;20417;-70
2023/03/07 05:19:34;;;;;;;15.33;10.63;;;;;;;3.61;55.19;94904.44;5030475;28;20286;-70
2023/03/07 05:21:59;;;;;;;13.90;10.57;;;;;;;3.69;55.03;94909.34;5030555;28;20508;-68
2023/03/07 05:24:25;;;;;;;21.03;10.77;;;;;;;3.65;55.35;94894.81;5030482;28;20187;-69
2023/03/07 05:26:50;;;;;;;14.73;10.53;;;;;;;3.74;54.78;94900.44;5030462;28;20163;-69
2023/03/07 05:29:16;;;;;;;15.93;11.00;;;;;;;3.72;54.89;94893.63;5030573;28;20250;-69
2023/03/07 05:31:41;;;;;;;17.70;10.57;;;;;;;3.70;54.95;94892.84;5030557;28;20186;-68
2023/03/07 05:34:09;;;;;;;31.10;11.90;;;;;;;3.84;53.90;94893.13;5030518;28;20290;-68
2023/03/07 05:36:35;;;;;;;21.30;10.03;;;;;;;3.78;54.37;94893.38;5030350;28;20175;-68
2023/03/07 05:39:00;;;;;;;18.33;9.60;;;;;;;3.75;54.36;94896.09;5030174;28;20406;-68
2023/03/07 05:41:28;;;;;;;18.07;10.30;;;;;;;3.70;54.41;94891.09;5028547;28;20532;-67
2023/03/07 05:43:54;;;;;;;17.53;10.10;;;;;;;3.80;54.37;94889.81;5029941;28;20258;-67
2023/03/07 05:46:20;;;;;;;19.43;11.53;;;;;;;3.70;54.69;94891.09;5029465;28;20591;-68
2023/03/07 05:48:45;;;;;;;16.87;9.63;;;;;;;3.72;54.77;94888.44;5030024;28;20163;-68
2023/03/07 05:51:11;;;;;;;20.03;12.50;;;;;;;3.78;54.01;94888.19;5030625;28;20414;-70
2023/03/07 05:53:36;;;;;;;27.33;12.73;;;;;;;3.72;54.29;94885.84;5030288;28;20252;-67
2023/03/07 05:56:02;;;;;;;16.87;10.47;;;;;;;3.94;53.84;94881.44;5029960;28;20629;-68
2023/03/07 05:58:27;;;;;;;22.10;13.30;;;;;;;3.88;54.06;94884.31;5030368;28;20175;-68
2023/03/07 06:00:53;;;;;;;18.53;9.73;;;;;;;3.76;54.12;94875.28;5029847;28;20171;-68
2023/03/07 06:03:18;;;;;;;18.47;11.27;;;;;;;3.83;53.88;94878.47;5028474;28;20974;-68
2023/03/07 06:05:44;;;;;;;14.77;9.20;;;;;;;3.84;54.15;94876.72;5029779;28;20692;-69
2023/03/07 06:08:09;;;;;;;37.53;12.60;;;;;;;3.82;53.97;94871.59;5030195;28;20192;-69
2023/03/07 06:10:36;;;;;;;17.07;8.90;;;;;;;3.98;53.57;94875.22;5012547;28;20241;-67
2023/03/07 06:13:01;;;;;;;13.90;9.50;;;;;;;3.86;54.03;94880.94;5029828;28;20837;-70
2023/03/07 06:15:27;;;;;;;19.13;10.93;;;;;;;3.83;54.01;94878.47;5037414;28;20486;-67
2023/03/07 06:17:53;;;;;;;14.67;9.93;;;;;;;3.77;54.27;94876.97;5036654;28;20637;-71
2023/03/07 06:20:22;;;;;;;15.27;9.37;;;;;;;3.85;53.61;94874.06;5039184;28;20183;-71
2023/03/07 06:22:48;;;;;;;11.50;8.67;;;;;;;3.84;54.11;94872.38;5039809;28;20430;-70
2023/03/07 06:25:15;;;;;;;15.40;9.77;;;;;;;3.77;54.38;94874.38;5039012;28;20519;-69
2023/03/07 06:27:41;;;;;;;16.87;10.90;;;;;;;3.88;54.03;94870.50;5038471;28;20414;-69
2023/03/07 06:30:08;;;;;;;15.47;9.30;;;;;;;3.80;54.33;94873.41;5037874;28;20440;-68
2023/03/07 06:32:33;;;;;;;20.33;8.70;;;;;;;3.77;53.92;94873.53;5030426;28;20203;-68
2023/03/07 06:34:59;;;;;;;17.40;10.60;;;;;;;3.96;53.73;94877.03;5032357;28;20421;-69
2023/03/07 06:37:24;;;;;;;16.60;9.80;;;;;;;3.97;53.92;94889.13;5031890;28;20190;-70
2023/03/07 06:39:50;;;;;;;17.43;11.37;;;;;;;4.08;53.04;94883.44;5030184;28;20641;-70
2023/03/07 06:42:15;;;;;;;14.27;9.40;;;;;;;3.92;53.61;94880.69;5029411;28;20194;-69
2023/03/07 06:44:41;;;;;;;19.00;10.00;;;;;;;3.93;54.17;94876.34;5029256;28;20199;-69
2023/03/07 06:47:06;;;;;;;16.67;10.00;;;;;;;3.93;53.97;94871.97;5028766;28;20187;-69
2023/03/07 06:49:32;;;;;;;19.50;10.70;;;;;;;3.99;53.77;94868.28;5029051;28;20627;-69
2023/03/07 06:51:57;;;;;;;23.37;10.00;;;;;;;4.06;52.94;94872.28;5029260;28;20175;-68
2023/03/07 06:54:23;;;;;;;26.30;11.90;;;;;;;4.07;54.01;94862.78;5028928;28;20203;-69
2023/03/07 06:56:48;;;;;;;21.00;9.40;;;;;;;4.07;53.20;94870.56;5028642;28;20172;-69
2023/03/07 06:59:14;;;;;;;14.17;9.20;;;;;;;4.16;52.89;94867.56;5027564;28;20732;-69
2023/03/07 07:01:40;;;;;;;16.33;8.30;;;;;;;4.10;52.81;94860.88;5028488;28;20222;-69
2023/03/07 07:04:05;;;;;;;44.87;11.70;;;;;;;4.19;52.61;94857.88;5028336;28;20434;-68
2023/03/07 07:06:30;;;;;;;15.13;9.00;;;;;;;4.50;52.11;94853.09;5028390;28;20664;-69
2023/03/07 07:08:58;;;;;;;17.83;8.23;;;;;;;4.63;51.99;94856.78;5029461;28;20215;-68
2023/03/07 07:11:24;;;;;;;15.03;8.80;;;;;;;4.90;50.66;94859.91;5028153;28;20168;-69
2023/03/07 07:13:50;;;;;;;63.97;14.33;;;;;;;5.04;49.84;94856.66;5028677;28;20997;-69
2023/03/07 07:16:16;;;;;;;15.90;9.13;;;;;;;4.99;50.42;94856.03;5028434;28;20414;-69
2023/03/07 07:18:43;;;;;;;14.83;8.73;;;;;;;5.06;50.13;94854.84;5028362;28;20176;-69
2023/03/07 07:21:08;;;;;;;13.10;9.33;;;;;;;5.17;50.31;94856.91;5028458;28;20484;-69
2023/03/07 07:23:34;;;;;;;11.80;9.00;;;;;;;5.32;49.54;94857.97;5028567;28;20446;-70
2023/03/07 07:26:00;;;;;;;14.27;8.60;;;;;;;6.40;46.74;94856.88;5028194;28;20206;-71
2023/03/07 07:28:26;;;;;;;14.07;9.40;;;;;;;6.15;47.00;94854.72;5028107;28;20191;-70
2023/03/07 07:30:51;;;;;;;16.33;9.80;;;;;;;5.78;47.79;94860.91;5028613;28;20477;-69
2023/03/07 07:33:16;;;;;;;14.37;7.90;;;;;;;5.55;48.42;94856.81;5028394;28;20187;-69
2023/03/07 07:35:43;;;;;;;18.07;9.23;;;;;;;5.43;48.66;94853.91;5028013;28;20171;-70
2023/03/07 07:38:08;;;;;;;14.63;9.40;;;;;;;5.87;48.37;94857.84;5028298;28;20175;-70
2023/03/07 07:40:34;;;;;;;14.60;9.77;;;;;;;6.49;46.66;94856.38;5027752;28;20781;-70
2023/03/07 07:42:59;;;;;;;20.73;10.37;;;;;;;7.08;45.25;94853.25;5028440;28;20211;-69
2023/03/07 07:45:25;;;;;;;25.23;8.80;;;;;;;8.40;42.13;94837.88;5028045;28;20303;-70
2023/03/07 07:47:51;;;;;;;16.53;8.53;;;;;;;8.83;40.35;94832.63;5027826;28;20176;-70
2023/03/07 07:50:18;;;;;;;29.80;10.70;;;;;;;8.80;40.11;94835.44;5028564;28;20167;-70
2023/03/07 07:52:44;;;;;;;21.13;9.27;;;;;;;8.94;39.41;94827.56;5026485;28;20200;-69
2023/03/07 07:55:12;;;;;;;12.70;8.50;;;;;;;9.36;39.13;94835.41;5026574;28;20559;-70
2023/03/07 07:57:38;;;;;;;16.43;8.70;;;;;;;9.39;38.45;94833.44;5027396;28;20302;-69
2023/03/07 08:00:04;;;;;;;13.87;8.93;;;;;;;9.52;38.16;94826.47;5032687;28;20900;-70
2023/03/07 08:02:30;;;;;;;11.73;8.67;;;;;;;9.95;37.38;94817.56;5027254;28;20241;-69
2023/03/07 08:04:55;;;;;;;15.50;9.13;;;;;;;10.32;36.62;94820.34;5032988;28;20461;-69
2023/03/07 08:07:21;;;;;;;16.30;9.20;;;;;;;10.14;37.07;94825.03;5046807;28;20253;-70
2023/03/07 08:09:47;;;;;;;13.77;10.30;;;;;;;10.41;36.89;94824.13;5046982;28;20250;-68
2023/03/07 08:12:12;;;;;;;15.70;9.03;;;;;;;10.54;35.98;94822.34;5047037;28;20922;-70
2023/03/07 08:14:39;;;;;;;13.73;9.23;;;;;;;10.36;36.19;94827.06;5027017;28;20175;-70
2023/03/07 08:17:04;;;;;;;17.43;9.23;;;;;;;10.42;36.02;94826.66;5026312;28;20553;-70
2023/03/07 08:19:30;;;;;;;16.67;11.63;;;;;;;10.60;35.98;94817.50;5028041;28;20417;-70
2023/03/07 08:21:56;;;;;;;16.47;10.73;;;;;;;10.50;36.08;94828.75;5027659;28;20172;-69
2023/03/07 08:24:21;;;;;;;14.07;9.70;;;;;;;10.86;35.31;94830.59;5027517;28;20186;-68
2023/03/07 08:26:47;;;;;;;11.90;9.00;;;;;;;10.77;35.65;94826.84;5026536;28;20233;-69
2023/03/07 08:29:12;;;;;;;13.57;8.37;;;;;;;11.05;35.20;94819.63;5026170;28;20880;-68
2023/03/07 08:31:38;;;;;;;14.43;10.20;;;;;;;11.28;35.05;94819.78;5024417;28;20231;-69
2023/03/07 08:34:03;;;;;;;39.27;10.87;;;;;;;10.55;35.53;94824.00;5033807;28;20210;-70
2023/03/07 08:36:29;;;;;;;17.23;10.33;;;;;;;10.25;36.42;94822.53;5025712;28;20190;-69
2023/03/07 08:38:55;;;;;;;17.30;9.70;;;;;;;10.34;36.36;94826.31;5026715;28;20651;-71
2023/03/07 08:41:21;;;;;;;41.20;13.17;;;;;;;10.37;36.18;94813.84;5022689;28;20180;-69
2023/03/07 08:43:47;;;;;;;99.10;20.33;;;;;;;10.68;35.83;94822.22;5025956;28;20283;-70
2023/03/07 08:46:13;;;;;;;16.88;11.55;;;;;;;11.16;35.19;94808.38;5029808;28;20627;-69
2023/03/07 08:48:39;;;;;;;18.53;9.53;;;;;;;10.99;35.03;94818.28;5038656;28;20189;-68
2023/03/07 08:51:10;;;;;;;14.17;9.67;;;;;;;11.19;35.00;94808.16;5029275;28;20583;-70
2023/03/07 08:53:36;;;;;;;14.40;10.00;;;;;;;11.35;35.21;94800.00;5029558;28;20195;-69
2023/03/07 08:56:06;;;;;;;16.67;9.70;;;;;;;11.40;34.57;94803.97;5028260;28;20426;-68
2023/03/07 08:58:32;;;;;;;23.53;9.03;;;;;;;11.45;33.66;94801.00;5030329;28;20240;-68
2023/03/07 09:00:57;;;;;;;15.83;9.50;;;;;;;11.17;33.92;94799.53;5029766;28;20525;-69
2023/03/07 09:03:23;;;;;;;19.90;14.30;;;;;;;10.73;34.68;94799.13;5030199;28;20680;-70
2023/03/07 09:05:48;;;;;;;24.23;12.63;;;;;;;10.36;34.83;94792.97;5029459;28;20647;-68
2023/03/07 09:08:14;;;;;;;23.23;11.13;;;;;;;10.37;35.53;94795.50;5029378;28;20222;-72
2023/03/07 09:10:39;;;;;;;13.53;9.80;;;;;;;10.28;35.48;94790.88;5030399;28;20199;-69
2023/03/07 09:13:05;;;;;;;16.30;9.20;;;;;;;10.06;35.84;94782.75;5028487;28;20199;-68
2023/03/07 09:15:30;;;;;;;14.67;8.50;;;;;;;10.37;35.43;94787.63;5029059;28;20167;-70
2023/03/07 09:17:56;;;;;;;13.93;8.83;;;;;;;10.71;34.82;94782.66;5029713;28;20168;-68
2023/03/07 09:20:22;;;;;;;14.50;9.83;;;;;;;10.76;34.59;94788.41;5029521;28;20195;-69
2023/03/07 09:22:47;;;;;;;12.70;8.60;;;;;;;11.00;34.64;94783.19;5031523;28;20191;-68
2023/03/07 09:25:13;;;;;;;23.30;10.77;;;;;;;11.06;33.29;94781.94;5030609;28;20624;-69
2023/03/07 09:27:38;;;;;;;13.90;9.60;;;;;;;10.74;34.40;94778.97;5027434;28;20186;-68
2023/03/07 09:30:04;;;;;;;15.40;11.40;;;;;;;10.77;33.99;94786.63;5029672;28;20183;-68
2023/03/07 09:32:33;;;;;;;13.20;8.73;;;;;;;10.78;33.75;94781.28;5031416;28;20290;-68
2023/03/07 09:34:58;;;;;;;13.47;8.40;;;;;;;11.06;33.46;94781.13;5029369;28;20412;-69
2023/03/07 09:37:24;;;;;;;12.30;8.50;;;;;;;10.78;33.32;94778.66;5028852;28;20410;-67
2023/03/07 09:39:49;;;;;;;15.47;8.80;;;;;;;10.76;33.80;94770.03;5029291;28;20201;-68
2023/03/07 09:42:27;;;;;;;11.37;8.87;;;;;;;10.64;34.08;94776.16;5034110;28;20202;-69
2023/03/07 09:44:55;;;;;;;11.50;8.40;;;;;;;10.45;34.58;94783.66;5016941;28;20248;-68
2023/03/07 09:47:58;;;;;;;12.80;9.23;;;;;;;10.64;34.20;94777.94;5030060;28;20451;-69
2023/03/07 09:50:50;;;;;;;11.20;9.13;;;;;;;10.98;34.24;94771.13;5027141;28;20411;-69
2023/03/07 09:53:40;;;;;;;11.63;8.63;;;;;;;10.69;34.16;94766.19;5022650;28;20564;-68
2023/03/07 09:56:11;;;;;;;15.20;8.80;;;;;;;10.34;34.93;94764.22;5027573;28;20480;-68
2023/03/07 09:58:42;;;;;;;17.93;9.30;;;;;;;10.70;34.59;94769.63;5029405;28;20430;-69
2023/03/07 10:01:11;;;;;;;13.35;8.95;;;;;;;10.69;34.06;94754.84;5030682;28;20444;-68
2023/03/07 10:03:51;;;;;;;14.25;9.40;;;;;;;10.89;34.37;94753.41;5026682;28;20538;-68
2023/03/07 10:06:31;;;;;;;15.05;9.40;;;;;;;11.10;33.94;94740.53;5026565;28;20578;-70
2023/03/07 10:08:59;;;;;;;20.30;9.50;;;;;;;10.98;33.37;94740.50;5030343;28;20170;-69
2023/03/07 10:12:02;;;;;;;12.23;8.17;;;;;;;11.10;32.96;94732.66;5036717;28;20898;-68
2023/03/07 10:14:57;;;;;;;10.30;7.97;;;;;;;11.10;32.93;94722.16;5033393;28;20436;-69
2023/03/07 10:17:45;;;;;;;10.50;8.17;;;;;;;11.10;32.45;94725.66;5027227;28;20413;-69
2023/03/07 10:20:41;;;;;;;11.00;8.37;;;;;;;10.69;33.73;94729.44;5027204;28;20402;-69
2023/03/07 10:23:12;;;;;;;10.33;7.73;;;;;;;10.46;33.71;94719.75;5027158;28;20556;-69
2023/03/07 10:25:52;;;;;;;11.70;7.73;;;;;;;10.56;33.50;94724.25;5031630;28;20446;-71
2023/03/07 10:28:23;;;;;;;12.30;7.47;;;;;;;10.66;33.48;94720.97;5028733;28;20478;-71
2023/03/07 10:30:52;;;;;;;14.83;9.30;;;;;;;10.66;33.46;94716.56;5028449;28;20490;-68
2023/03/07 10:33:19;;;;;;;21.90;8.03;;;;;;;10.93;32.92;94710.28;5027257;28;20433;-69
2023/03/07 10:35:56;;;;;;;14.73;8.43;;;;;;;10.60;33.25;94719.59;5027179;28;20414;-67
2023/03/07 10:38:32;;;;;;;11.80;7.50;;;;;;;10.55;33.88;94708.59;5027439;28;20911;-69
2023/03/07 10:41:17;;;;;;;8.50;7.43;;;;;;;10.46;33.64;94715.31;5027188;28;20445;-70
2023/03/07 10:43:44;;;;;;;11.80;7.33;;;;;;;10.48;33.12;94704.75;5015599;28;20487;-68
2023/03/07 10:46:10;;;;;;;17.47;7.50;;;;;;;10.43;33.34;94702.44;4964921;28;1185732;-68
2023/03/07 10:48:38;;;;;;;9.73;7.83;;;;;;;10.20;34.28;94703.19;5008363;28;20502;-68
2023/03/07 10:51:34;;;;;;;11.20;8.23;;;;;;;10.26;34.00;94708.00;5008631;28;20172;-69
2023/03/07 10:54:01;;;;;;;11.07;8.37;;;;;;;9.94;34.83;94706.69;5008173;28;20439;-67
2023/03/07 10:56:26;;;;;;;14.00;8.23;;;;;;;9.84;34.79;94713.47;5007746;28;20411;-70
2023/03/07 10:59:03;;;;;;;13.77;8.80;;;;;;;9.61;35.06;94708.94;5007934;28;20473;-69
2023/03/07 11:01:31;;;;;;;11.20;8.00;;;;;;;9.27;35.62;94696.31;5007854;28;20199;-67
2023/03/07 11:04:03;;;;;;;20.13;9.27;;;;;;;9.24;35.51;94693.09;5007867;28;20786;-69
2023/03/07 11:06:55;;;;;;;11.97;8.70;;;;;;;9.29;36.37;94689.22;5006229;28;20474;-67
2023/03/07 11:09:33;;;;;;;16.00;8.20;;;;;;;9.57;35.20;94692.63;5008009;28;20454;-68
2023/03/07 11:12:09;;;;;;;37.33;9.90;;;;;;;9.55;34.97;94689.25;5007392;28;20991;-69
2023/03/07 11:14:50;;;;;;;19.33;9.23;;;;;;;9.81;34.89;94677.00;5007770;28;20411;-68
2023/03/07 11:17:41;;;;;;;30.67;9.33;;;;;;;9.99;34.19;94667.03;5016739;28;20426;-68
2023/03/07 11:20:21;;;;;;;13.60;10.50;;;;;;;10.33;33.49;94660.31;5028271;28;20410;-69
2023/03/07 11:22:47;;;;;;;16.77;8.97;;;;;;;10.26;33.89;94650.34;5027609;28;21068;-69
2023/03/07 11:25:22;;;;;;;11.87;8.20;;;;;;;10.26;34.04;94643.31;5027664;28;20452;-70
2023/03/07 11:27:57;;;;;;;12.20;8.53;;;;;;;10.17;33.98;94643.94;5027766;28;20405;-70
2023/03/07 11:30:40;;;;;;;13.93;8.57;;;;;;;10.24;32.73;94641.75;5027572;28;20485;-71
2023/03/07 11:33:17;;;;;;;18.63;8.90;;;;;;;9.99;33.79;94656.53;5042856;28;20448;-69